This is the latest recevied weather packets stored in our database for station/object KL1SF-7. If no packets are shown the sender has not sent any weather packets the latest 1 day(s).
| Time | Temp. | Humidity | Pressure | Rain* | Wind** | Luminosity | Snow |
|---|---|---|---|---|---|---|---|
| 1778051610 | 3.33° C | 72% | 1015.6 hPa | 0 mm | - | - | - |
| 1778050402 | 3.33° C | 73% | 1015 hPa | 0 mm | - | - | - |
| 1778049818 | 3.33° C | 74% | 1015 hPa | 0 mm | - | - | - |
| 1778049210 | 3.33° C | 75% | 1015.4 hPa | 0 mm | - | - | - |
| 1778048010 | 2.78° C | 76% | 1015.3 hPa | 0 mm | - | - | - |
| 1778046213 | 2.78° C | 77% | 1014.7 hPa | 0 mm | - | - | - |
| 1778045626 | 2.78° C | 76% | 1014.6 hPa | 0 mm | - | - | - |
| 1778045010 | 2.78° C | 76% | 1014.6 hPa | 0 mm | - | - | - |
| 1778044420 | 2.78° C | 76% | 1014.6 hPa | 0 mm | - | - | - |
| 1778043813 | 2.78° C | 76% | 1014.2 hPa | 0 mm | - | - | - |
| 1778043214 | 2.78° C | 76% | 1014.1 hPa | 0 mm | - | - | - |
| 1778042016 | 3.33° C | 75% | 1014.3 hPa | 0 mm | - | - | - |
| 1778041401 | 3.33° C | 74% | 1014.2 hPa | 0 mm | - | - | - |
| 1778040223 | 3.89° C | 72% | 1013.9 hPa | 0 mm | - | - | - |
| 1778039604 | 3.89° C | 71% | 1013.6 hPa | 0 mm | - | - | - |
| 1778039014 | 4.44° C | 70% | 1013.6 hPa | 0 mm | - | - | - |
| 1778037808 | 4.44° C | 67% | 1013.6 hPa | 0 mm | - | - | - |
| 1778037205 | 5° C | 65% | 1013.6 hPa | 0 mm | - | - | - |
| 1778035409 | 5.56° C | 61% | 1012.7 hPa | 0 mm | - | - | - |
| 1778034220 | 5.56° C | 60% | 1012.2 hPa | 0 mm | - | - | - |
| 1778033027 | 6.11° C | 60% | 1012.1 hPa | 0 mm | - | - | - |
| 1778032408 | 6.11° C | 60% | 1011.8 hPa | 0 mm | - | - | - |
| 1778031817 | 6.67° C | 58% | 1011.8 hPa | 0 mm | - | - | - |
| 1778031210 | 6.67° C | 57% | 1011.8 hPa | 0 mm | - | - | - |
| 1778030003 | 7.22° C | 55% | 1011.8 hPa | 0 mm | - | - | - |
* Rain since midnight (hover to see other rain measurements)
** Current wind speed in m/s (hover to see current wind gust speed)